Time;durP1;ratioP1;P1;durP2;ratioP2;P2;SDS_P1;SDS_P2;PMS_P1;PMS_P2;Temp;Humidity;BMP_temperature;BMP_pressure;BME280_temperature;BME280_humidity;BME280_pressure;Samples;Min_cycle;Max_cycle;Signal;HPM_P1;HPM_P2
2022/04/08 00:01:47;;;;;;;5.60;3.40;;;;;;;;;;5124928;28;20020;-64
2022/04/08 00:04:14;;;;;;;5.50;3.40;;;;;;;;;;5133214;28;20363;-64
2022/04/08 00:06:40;;;;;;;6.63;3.70;;;;;;;;;;5125729;28;20042;-64
2022/04/08 00:09:07;;;;;;;4.87;3.37;;;;;;;;;;5107310;28;20016;-65
2022/04/08 00:11:34;;;;;;;5.87;3.50;;;;;;;;;;5106593;28;20016;-66
2022/04/08 00:14:00;;;;;;;9.20;3.50;;;;;;;;;;5107223;28;20030;-64
2022/04/08 00:16:27;;;;;;;7.37;3.33;;;;;;;;;;5110669;28;20036;-64
2022/04/08 00:18:55;;;;;;;7.27;3.27;;;;;;;;;;5132903;28;20377;-64
2022/04/08 00:21:24;;;;;;;9.40;4.00;;;;;;;;;;5132702;28;20208;-65
2022/04/08 00:23:50;;;;;;;8.30;3.73;;;;;;;;;;5103681;28;20024;-64
2022/04/08 00:26:17;;;;;;;6.93;3.20;;;;;;;;;;5112240;28;20424;-64
2022/04/08 00:28:45;;;;;;;9.10;3.40;;;;;;;;;;5109290;28;20069;-65
2022/04/08 00:31:13;;;;;;;5.67;2.90;;;;;;;;;;5106874;28;20038;-64
2022/04/08 00:33:40;;;;;;;7.00;3.30;;;;;;;;;;5111208;27;20381;-65
2022/04/08 00:36:06;;;;;;;7.17;3.60;;;;;;;;;;5110813;28;20032;-64
2022/04/08 00:38:33;;;;;;;10.43;3.47;;;;;;;;;;5120016;27;20019;-64
2022/04/08 00:41:00;;;;;;;9.80;3.40;;;;;;;;;;5136667;27;20399;-64
2022/04/08 00:43:37;;;;;;;7.13;4.10;;;;;;;;;;5118745;27;20019;-64
2022/04/08 00:46:04;;;;;;;8.20;3.37;;;;;;;;;;5116158;28;20034;-64
2022/04/08 00:48:31;;;;;;;9.03;3.77;;;;;;;;;;5124420;27;20043;-64
2022/04/08 00:50:59;;;;;;;9.50;3.40;;;;;;;;;;5113701;28;20027;-64
2022/04/08 00:53:25;;;;;;;11.23;3.87;;;;;;;;;;5110483;27;20522;-64
2022/04/08 00:55:52;;;;;;;6.17;3.67;;;;;;;;;;5110397;28;20114;-64
2022/04/08 00:58:19;;;;;;;8.53;4.03;;;;;;;;;;5114861;27;20107;-64
2022/04/08 01:00:46;;;;;;;6.47;3.10;;;;;;;;;;5131877;27;20061;-66
2022/04/08 01:03:13;;;;;;;9.27;3.33;;;;;;;;;;5135880;27;20481;-64
2022/04/08 01:05:39;;;;;;;6.63;3.30;;;;;;;;;;5116515;27;20130;-64
2022/04/08 01:08:09;;;;;;;6.80;3.83;;;;;;;;;;5117912;27;20043;-64
2022/04/08 01:10:36;;;;;;;5.47;3.40;;;;;;;;;;5135781;27;20474;-64
2022/04/08 01:13:03;;;;;;;7.77;3.50;;;;;;;;;;5123567;27;20016;-64
2022/04/08 01:15:29;;;;;;;7.43;3.60;;;;;;;;;;5109806;28;20028;-64
2022/04/08 01:17:56;;;;;;;6.40;3.60;;;;;;;;;;5126149;27;20291;-66
2022/04/08 01:20:23;;;;;;;7.93;3.67;;;;;;;;;;5109922;28;20028;-64
2022/04/08 01:22:50;;;;;;;8.40;4.03;;;;;;;;;;5110435;27;20031;-64
2022/04/08 01:25:16;;;;;;;9.70;4.43;;;;;;;;;;5115219;28;20019;-64
2022/04/08 01:27:43;;;;;;;4.60;3.37;;;;;;;;;;5115079;27;20071;-64
2022/04/08 01:30:12;;;;;;;8.30;4.00;;;;;;;;;;5123496;27;20354;-64
2022/04/08 01:32:39;;;;;;;6.70;4.30;;;;;;;;;;5114575;27;20020;-64
2022/04/08 01:35:06;;;;;;;6.80;3.33;;;;;;;;;;5120167;27;20022;-66
2022/04/08 01:37:33;;;;;;;6.07;3.70;;;;;;;;;;5129648;27;20418;-64
2022/04/08 01:39:59;;;;;;;7.30;4.00;;;;;;;;;;5112066;27;20061;-64
2022/04/08 01:42:26;;;;;;;5.27;3.30;;;;;;;;;;5109635;28;20054;-64
2022/04/08 01:44:54;;;;;;;6.17;3.60;;;;;;;;;;5109554;27;20062;-65
2022/04/08 01:47:21;;;;;;;6.00;3.60;;;;;;;;;;5126981;27;20041;-64
2022/04/08 01:49:48;;;;;;;5.63;3.40;;;;;;;;;;5118569;27;20035;-65
2022/04/08 01:52:15;;;;;;;9.17;4.23;;;;;;;;;;5114666;27;20054;-64
2022/04/08 01:54:42;;;;;;;5.20;3.47;;;;;;;;;;5114437;28;20011;-64
2022/04/08 01:57:09;;;;;;;6.00;3.83;;;;;;;;;;5115595;27;20024;-64
2022/04/08 01:59:35;;;;;;;10.17;4.37;;;;;;;;;;5109359;28;20043;-64
2022/04/08 02:02:02;;;;;;;8.43;3.53;;;;;;;;;;5124849;27;20030;-65
2022/04/08 02:04:30;;;;;;;7.63;3.97;;;;;;;;;;5129395;27;20031;-64
2022/04/08 02:06:58;;;;;;;7.10;3.87;;;;;;;;;;5114098;27;20023;-64
2022/04/08 02:09:24;;;;;;;6.27;4.20;;;;;;;;;;5131900;27;20039;-64
2022/04/08 02:11:51;;;;;;;8.77;3.40;;;;;;;;;;5134125;27;20481;-64
2022/04/08 02:14:18;;;;;;;6.00;3.60;;;;;;;;;;5134616;27;20373;-64
2022/04/08 02:16:44;;;;;;;5.30;3.40;;;;;;;;;;5121323;27;20046;-64
2022/04/08 02:19:11;;;;;;;7.93;3.50;;;;;;;;;;5114220;27;20027;-64
2022/04/08 02:21:38;;;;;;;6.13;3.33;;;;;;;;;;5109751;28;20023;-64
2022/04/08 02:24:05;;;;;;;5.07;2.93;;;;;;;;;;5108713;28;20028;-64
2022/04/08 02:26:31;;;;;;;4.90;3.00;;;;;;;;;;5119239;27;20030;-64
2022/04/08 02:28:59;;;;;;;6.50;2.97;;;;;;;;;;5129040;27;20050;-65
2022/04/08 02:31:26;;;;;;;4.43;2.80;;;;;;;;;;5132433;27;20026;-64
2022/04/08 02:33:53;;;;;;;5.73;2.97;;;;;;;;;;5134635;27;20072;-64
2022/04/08 02:36:23;;;;;;;6.13;3.10;;;;;;;;;;5125759;27;20023;-65
2022/04/08 02:38:49;;;;;;;8.63;3.37;;;;;;;;;;5130079;27;20023;-64
2022/04/08 02:41:16;;;;;;;6.10;3.00;;;;;;;;;;5113471;28;20055;-64
2022/04/08 02:43:43;;;;;;;5.27;2.60;;;;;;;;;;5110208;28;20027;-64
2022/04/08 02:46:09;;;;;;;7.93;2.90;;;;;;;;;;5112443;27;20019;-65
2022/04/08 02:48:36;;;;;;;4.03;2.50;;;;;;;;;;5128564;27;20031;-64
2022/04/08 02:51:03;;;;;;;7.03;2.73;;;;;;;;;;5128803;27;20412;-64
2022/04/08 02:53:29;;;;;;;6.50;3.00;;;;;;;;;;5131260;27;20112;-64
2022/04/08 02:55:56;;;;;;;6.60;2.40;;;;;;;;;;5128020;27;20054;-64
2022/04/08 02:58:23;;;;;;;4.30;2.47;;;;;;;;;;5114061;27;20058;-64
2022/04/08 03:00:49;;;;;;;4.27;2.10;;;;;;;;;;5114481;27;20027;-64
2022/04/08 03:03:16;;;;;;;6.10;2.40;;;;;;;;;;5112828;28;20416;-65
2022/04/08 03:05:43;;;;;;;8.77;2.50;;;;;;;;;;5110517;28;20042;-64
2022/04/08 03:08:09;;;;;;;3.70;2.00;;;;;;;;;;5123639;27;20079;-64
2022/04/08 03:10:36;;;;;;;3.53;2.20;;;;;;;;;;5119308;27;20020;-64
2022/04/08 03:13:04;;;;;;;4.37;2.20;;;;;;;;;;5128136;27;20057;-64
2022/04/08 03:15:31;;;;;;;4.40;2.07;;;;;;;;;;5130630;27;20023;-64
2022/04/08 03:17:58;;;;;;;5.90;2.17;;;;;;;;;;5133070;27;20029;-64
2022/04/08 03:20:24;;;;;;;3.20;1.70;;;;;;;;;;5126951;27;20023;-66
2022/04/08 03:22:51;;;;;;;3.30;1.67;;;;;;;;;;5113015;28;20102;-64
2022/04/08 03:25:19;;;;;;;7.23;2.27;;;;;;;;;;5112960;28;20035;-64
2022/04/08 03:27:45;;;;;;;6.27;2.47;;;;;;;;;;5110579;28;20089;-64
2022/04/08 03:30:12;;;;;;;5.20;2.40;;;;;;;;;;5108934;27;20098;-64
2022/04/08 03:32:39;;;;;;;3.10;2.10;;;;;;;;;;5107321;28;20046;-64
2022/04/08 03:35:06;;;;;;;6.60;2.23;;;;;;;;;;5112241;27;20134;-64
2022/04/08 03:37:33;;;;;;;4.53;2.30;;;;;;;;;;5129009;27;20016;-64
2022/04/08 03:40:00;;;;;;;4.60;2.33;;;;;;;;;;5124868;27;20019;-64
2022/04/08 03:42:27;;;;;;;3.43;2.20;;;;;;;;;;5130430;27;20027;-64
2022/04/08 03:44:54;;;;;;;3.60;2.13;;;;;;;;;;5130985;27;20343;-64
2022/04/08 03:47:21;;;;;;;4.63;2.50;;;;;;;;;;5115627;28;20077;-64
2022/04/08 03:49:48;;;;;;;9.30;2.50;;;;;;;;;;5110818;28;20382;-64
2022/04/08 03:52:14;;;;;;;4.50;2.17;;;;;;;;;;5107373;28;20020;-64
2022/04/08 03:54:41;;;;;;;6.53;2.30;;;;;;;;;;5107132;28;20027;-64
2022/04/08 03:57:08;;;;;;;4.03;2.50;;;;;;;;;;5119357;28;20035;-64
2022/04/08 03:59:35;;;;;;;4.03;2.27;;;;;;;;;;5108395;28;20386;-64
2022/04/08 04:02:02;;;;;;;5.57;2.43;;;;;;;;;;5112578;28;20057;-64
2022/04/08 04:04:28;;;;;;;5.50;2.40;;;;;;;;;;5113796;28;20103;-64
2022/04/08 04:06:55;;;;;;;5.07;2.20;;;;;;;;;;5129917;28;20122;-63
2022/04/08 04:09:22;;;;;;;5.53;2.80;;;;;;;;;;5134807;27;20064;-63
2022/04/08 04:11:49;;;;;;;7.73;2.33;;;;;;;;;;5122582;27;20094;-64
2022/04/08 04:14:16;;;;;;;8.77;2.80;;;;;;;;;;5111403;28;20019;-64
2022/04/08 04:16:43;;;;;;;5.13;2.80;;;;;;;;;;5127152;27;20019;-63
2022/04/08 04:19:10;;;;;;;6.30;2.50;;;;;;;;;;5131993;27;20477;-64
2022/04/08 04:21:36;;;;;;;8.83;2.60;;;;;;;;;;5131231;27;20034;-64
2022/04/08 04:24:03;;;;;;;6.30;3.17;;;;;;;;;;5136869;27;20534;-64
2022/04/08 04:26:30;;;;;;;4.77;2.63;;;;;;;;;;5122226;27;20069;-64
2022/04/08 04:28:56;;;;;;;7.47;2.90;;;;;;;;;;5115822;28;20028;-64
2022/04/08 04:31:23;;;;;;;4.97;2.90;;;;;;;;;;5124151;27;20023;-63
2022/04/08 04:33:50;;;;;;;6.53;3.10;;;;;;;;;;5135673;27;20023;-63
2022/04/08 04:36:16;;;;;;;7.90;2.77;;;;;;;;;;5120794;27;20031;-64
2022/04/08 04:38:44;;;;;;;6.47;3.30;;;;;;;;;;5112949;27;20042;-64
2022/04/08 04:41:10;;;;;;;4.70;3.10;;;;;;;;;;5118894;27;20024;-64
2022/04/08 04:43:37;;;;;;;6.40;3.37;;;;;;;;;;5090506;28;20017;-64
2022/04/08 04:46:04;;;;;;;5.30;3.03;;;;;;;;;;5114342;27;20034;-64
2022/04/08 04:48:31;;;;;;;4.80;3.10;;;;;;;;;;5123305;27;20031;-64
2022/04/08 04:50:57;;;;;;;4.60;2.90;;;;;;;;;;5136430;27;20039;-63
2022/04/08 04:53:24;;;;;;;5.00;3.43;;;;;;;;;;5136143;27;20024;-64
2022/04/08 04:55:51;;;;;;;9.10;3.63;;;;;;;;;;5136553;27;20030;-63
2022/04/08 04:58:18;;;;;;;8.30;2.87;;;;;;;;;;5113169;27;20072;-63
2022/04/08 05:00:44;;;;;;;5.00;2.60;;;;;;;;;;5130908;27;20019;-64
2022/04/08 05:03:13;;;;;;;7.97;3.37;;;;;;;;;;5122858;27;20034;-64
2022/04/08 05:05:40;;;;;;;6.73;2.83;;;;;;;;;;5130510;27;20031;-64
2022/04/08 05:08:07;;;;;;;4.57;2.77;;;;;;;;;;5134543;27;20067;-63
2022/04/08 05:10:34;;;;;;;6.97;2.90;;;;;;;;;;5135896;27;20477;-63
2022/04/08 05:13:00;;;;;;;4.37;2.47;;;;;;;;;;5117000;27;20085;-63
2022/04/08 05:15:27;;;;;;;6.47;3.30;;;;;;;;;;5121895;27;20015;-63
2022/04/08 05:17:55;;;;;;;8.10;3.20;;;;;;;;;;5115300;27;20023;-69
2022/04/08 05:20:22;;;;;;;8.70;3.63;;;;;;;;;;5110774;28;20024;-65
2022/04/08 05:22:48;;;;;;;10.40;4.40;;;;;;;;;;5110208;28;20106;-64
2022/04/08 05:25:15;;;;;;;4.57;2.67;;;;;;;;;;5127292;27;20083;-64
2022/04/08 05:27:42;;;;;;;5.93;3.20;;;;;;;;;;5118838;27;20144;-63
2022/04/08 05:30:12;;;;;;;7.73;2.20;;;;;;;;;;5113814;27;20503;-64
2022/04/08 05:32:39;;;;;;;6.40;2.87;;;;;;;;;;5115120;28;20019;-64
2022/04/08 05:35:06;;;;;;;4.23;2.40;;;;;;;;;;5130473;27;20058;-65
2022/04/08 05:37:39;;;;;;;7.83;3.10;;;;;;;;;;5125049;27;20027;-63
2022/04/08 05:40:06;;;;;;;5.93;2.60;;;;;;;;;;5113226;28;20023;-63
2022/04/08 05:42:33;;;;;;;5.67;2.77;;;;;;;;;;5116042;27;20027;-63
2022/04/08 05:44:59;;;;;;;5.67;3.30;;;;;;;;;;5114379;27;20031;-63
2022/04/08 05:47:31;;;;;;;10.80;3.03;;;;;;;;;;5113493;27;20027;-63
2022/04/08 05:50:00;;;;;;;6.87;2.63;;;;;;;;;;5128549;27;20030;-65
2022/04/08 05:52:27;;;;;;;6.07;2.50;;;;;;;;;;5131031;27;20031;-63
2022/04/08 05:54:54;;;;;;;5.20;2.70;;;;;;;;;;5133809;27;20355;-63
2022/04/08 05:57:20;;;;;;;4.07;2.10;;;;;;;;;;5126133;27;20046;-63
2022/04/08 05:59:47;;;;;;;3.77;2.17;;;;;;;;;;5114555;28;20019;-63
2022/04/08 06:02:14;;;;;;;5.27;2.30;;;;;;;;;;5114461;28;20023;-63
2022/04/08 06:04:41;;;;;;;5.40;2.33;;;;;;;;;;5111172;28;20020;-64
2022/04/08 06:07:08;;;;;;;2.60;1.90;;;;;;;;;;5114812;27;20035;-63
2022/04/08 06:09:35;;;;;;;5.33;2.37;;;;;;;;;;5129843;27;20026;-63
2022/04/08 06:12:02;;;;;;;6.37;2.20;;;;;;;;;;5123069;27;20019;-63
2022/04/08 06:14:30;;;;;;;7.63;2.20;;;;;;;;;;5121067;27;20027;-63
2022/04/08 06:16:57;;;;;;;4.03;2.00;;;;;;;;;;5129373;27;20024;-63
2022/04/08 06:19:23;;;;;;;2.93;1.60;;;;;;;;;;5114274;28;20019;-63
2022/04/08 06:21:50;;;;;;;3.83;1.90;;;;;;;;;;5118007;27;20042;-63
2022/04/08 06:24:17;;;;;;;3.80;2.00;;;;;;;;;;5133903;27;20076;-63
2022/04/08 06:26:43;;;;;;;3.10;1.80;;;;;;;;;;5128565;27;20035;-63
2022/04/08 06:29:10;;;;;;;2.40;1.37;;;;;;;;;;5108871;28;20024;-63
2022/04/08 06:31:37;;;;;;;3.67;1.90;;;;;;;;;;5107758;28;20080;-63
2022/04/08 06:34:03;;;;;;;4.47;2.27;;;;;;;;;;5108584;28;20019;-63
2022/04/08 06:36:30;;;;;;;3.63;2.17;;;;;;;;;;5111071;27;20027;-63
2022/04/08 06:38:57;;;;;;;2.93;2.00;;;;;;;;;;5134403;27;20016;-63
2022/04/08 06:41:23;;;;;;;4.50;2.23;;;;;;;;;;5133780;27;20034;-63
2022/04/08 06:43:50;;;;;;;4.37;1.90;;;;;;;;;;5132145;27;20119;-63
2022/04/08 06:46:17;;;;;;;3.97;1.90;;;;;;;;;;5130449;27;20027;-63
2022/04/08 06:48:44;;;;;;;4.90;1.60;;;;;;;;;;5111511;28;20385;-63
2022/04/08 06:51:10;;;;;;;13.00;2.50;;;;;;;;;;5108316;28;20045;-63
2022/04/08 06:53:38;;;;;;;6.43;1.90;;;;;;;;;;5108348;28;20024;-63
2022/04/08 06:56:05;;;;;;;5.33;2.03;;;;;;;;;;5108212;28;20085;-63
2022/04/08 06:58:38;;;;;;;5.47;2.43;;;;;;;;;;5125798;27;20027;-63
2022/04/08 07:01:06;;;;;;;4.97;2.87;;;;;;;;;;5133838;27;20023;-63
2022/04/08 07:03:33;;;;;;;8.07;2.93;;;;;;;;;;5133603;27;20023;-63
2022/04/08 07:06:00;;;;;;;5.67;2.53;;;;;;;;;;5133920;27;20477;-63
2022/04/08 07:08:26;;;;;;;9.20;2.67;;;;;;;;;;5116831;27;20047;-63
2022/04/08 07:10:53;;;;;;;5.27;2.67;;;;;;;;;;5111413;28;20034;-63
2022/04/08 07:13:20;;;;;;;5.77;2.57;;;;;;;;;;5107520;27;20449;-64
2022/04/08 07:15:46;;;;;;;6.87;2.53;;;;;;;;;;5107973;28;20036;-63
2022/04/08 07:18:13;;;;;;;5.40;2.67;;;;;;;;;;5121893;27;20039;-64
2022/04/08 07:20:40;;;;;;;6.07;2.80;;;;;;;;;;5128416;27;20048;-63
2022/04/08 07:23:06;;;;;;;6.07;2.90;;;;;;;;;;5133138;27;20058;-63
2022/04/08 07:25:33;;;;;;;4.33;2.20;;;;;;;;;;5133626;27;20023;-63
2022/04/08 07:28:00;;;;;;;5.67;2.53;;;;;;;;;;5120453;27;20054;-63
2022/04/08 07:30:27;;;;;;;11.40;3.10;;;;;;;;;;5122930;27;20023;-63
2022/04/08 07:32:54;;;;;;;10.83;3.47;;;;;;;;;;5132008;27;20412;-63
2022/04/08 07:35:23;;;;;;;9.47;3.43;;;;;;;;;;5127857;27;20036;-63
2022/04/08 07:37:49;;;;;;;8.33;2.77;;;;;;;;;;5115718;27;20035;-63
2022/04/08 07:40:16;;;;;;;7.27;3.60;;;;;;;;;;5115382;27;21265;-63
2022/04/08 07:42:43;;;;;;;9.90;3.53;;;;;;;;;;5127946;27;20023;-63
2022/04/08 07:45:10;;;;;;;7.27;3.07;;;;;;;;;;5133146;27;20026;-65
2022/04/08 07:47:37;;;;;;;6.77;3.20;;;;;;;;;;5126227;27;20114;-63
2022/04/08 07:50:05;;;;;;;4.50;2.57;;;;;;;;;;5119632;28;20127;-63
2022/04/08 07:52:33;;;;;;;12.10;4.23;;;;;;;;;;5112816;28;20019;-63
2022/04/08 07:55:00;;;;;;;6.10;3.17;;;;;;;;;;5112095;28;20380;-63
2022/04/08 07:57:27;;;;;;;5.00;2.67;;;;;;;;;;5107276;28;20024;-63
2022/04/08 07:59:53;;;;;;;9.73;2.57;;;;;;;;;;5111605;28;20389;-63
2022/04/08 08:02:21;;;;;;;8.50;3.37;;;;;;;;;;5127273;28;20031;-64
2022/04/08 08:04:49;;;;;;;12.57;2.80;;;;;;;;;;5127433;28;20027;-63
2022/04/08 08:07:16;;;;;;;8.03;3.03;;;;;;;;;;5132624;28;20189;-63
2022/04/08 08:09:42;;;;;;;5.37;3.07;;;;;;;;;;5129698;28;20031;-63
2022/04/08 08:12:09;;;;;;;6.53;2.83;;;;;;;;;;5112561;28;20098;-63
2022/04/08 08:14:36;;;;;;;6.37;2.83;;;;;;;;;;5112336;28;20024;-63
2022/04/08 08:17:04;;;;;;;9.80;4.07;;;;;;;;;;5112564;28;20042;-63
2022/04/08 08:19:31;;;;;;;9.73;3.53;;;;;;;;;;5112048;28;20035;-63
2022/04/08 08:21:58;;;;;;;8.90;3.37;;;;;;;;;;5108757;28;20501;-63
2022/04/08 08:24:24;;;;;;;6.10;3.00;;;;;;;;;;5127786;28;20533;-63
2022/04/08 08:26:51;;;;;;;6.03;3.17;;;;;;;;;;5127395;28;20031;-63
2022/04/08 08:29:18;;;;;;;5.53;2.73;;;;;;;;;;5125357;28;20028;-63
2022/04/08 08:31:44;;;;;;;8.60;3.77;;;;;;;;;;5112354;28;20020;-63
2022/04/08 08:34:11;;;;;;;9.87;3.77;;;;;;;;;;5112420;28;20027;-63
2022/04/08 08:36:38;;;;;;;8.30;3.23;;;;;;;;;;5112165;28;20016;-63
2022/04/08 08:39:05;;;;;;;12.10;3.27;;;;;;;;;;5112823;28;20027;-63
2022/04/08 08:41:32;;;;;;;5.90;3.23;;;;;;;;;;5113720;28;20058;-63
2022/04/08 08:43:59;;;;;;;6.80;3.10;;;;;;;;;;5127221;28;20037;-63
2022/04/08 08:46:25;;;;;;;5.97;2.50;;;;;;;;;;5125647;28;20031;-63
2022/04/08 08:48:52;;;;;;;8.17;3.30;;;;;;;;;;5109720;28;20058;-63
2022/04/08 08:51:20;;;;;;;7.17;2.73;;;;;;;;;;5120059;28;20488;-64
2022/04/08 08:53:47;;;;;;;6.10;2.80;;;;;;;;;;5129094;27;20024;-62
2022/04/08 08:56:15;;;;;;;7.13;2.57;;;;;;;;;;5115046;28;20023;-63
2022/04/08 08:58:41;;;;;;;5.60;2.73;;;;;;;;;;5115725;28;20110;-63
2022/04/08 09:01:10;;;;;;;10.20;4.23;;;;;;;;;;5115884;28;20026;-63
2022/04/08 09:03:37;;;;;;;11.13;2.97;;;;;;;;;;5111443;28;20020;-63
2022/04/08 09:06:08;;;;;;;7.57;2.70;;;;;;;;;;5111547;27;20035;-63
2022/04/08 09:08:35;;;;;;;7.10;3.37;;;;;;;;;;5110240;28;20061;-63
2022/04/08 09:11:02;;;;;;;6.73;2.80;;;;;;;;;;5110328;27;20128;-63
2022/04/08 09:13:29;;;;;;;8.53;3.00;;;;;;;;;;5113739;28;20080;-63
2022/04/08 09:15:57;;;;;;;8.93;3.03;;;;;;;;;;5133960;27;20027;-63
2022/04/08 09:18:29;;;;;;;6.20;3.03;;;;;;;;;;5135361;27;20587;-63
2022/04/08 09:20:58;;;;;;;6.87;3.20;;;;;;;;;;5129792;27;20084;-63
2022/04/08 09:23:25;;;;;;;7.57;2.50;;;;;;;;;;5115262;28;20275;-63
2022/04/08 09:26:02;;;;;;;11.37;3.67;;;;;;;;;;5129020;27;20665;-63
2022/04/08 09:28:40;;;;;;;6.57;3.63;;;;;;;;;;5130327;27;20096;-63
2022/04/08 09:31:15;;;;;;;8.60;3.10;;;;;;;;;;5130441;27;20259;-63
2022/04/08 09:33:55;;;;;;;12.63;3.63;;;;;;;;;;5129994;27;20538;-64
2022/04/08 09:36:32;;;;;;;7.57;3.67;;;;;;;;;;5114716;28;20030;-63
2022/04/08 09:38:59;;;;;;;12.47;3.07;;;;;;;;;;5094728;28;20261;-63
2022/04/08 09:41:39;;;;;;;7.30;3.23;;;;;;;;;;5110659;28;20092;-63
2022/04/08 09:44:07;;;;;;;10.20;3.53;;;;;;;;;;5131442;27;20654;-63
2022/04/08 09:46:33;;;;;;;5.13;2.90;;;;;;;;;;5114377;28;20253;-64
2022/04/08 09:49:00;;;;;;;5.97;3.40;;;;;;;;;;5125561;27;20325;-63
2022/04/08 09:51:28;;;;;;;8.77;3.80;;;;;;;;;;5115336;27;20317;-62
2022/04/08 09:53:56;;;;;;;11.83;5.00;;;;;;;;;;5126649;27;20999;-63
2022/04/08 09:56:23;;;;;;;11.30;5.47;;;;;;;;;;5113969;27;20272;-63
2022/04/08 09:59:05;;;;;;;7.90;4.50;;;;;;;;;;5134911;27;20027;-63
2022/04/08 10:01:32;;;;;;;11.30;5.67;;;;;;;;;;5135131;27;20287;-62
2022/04/08 10:03:59;;;;;;;9.73;5.53;;;;;;;;;;5134775;27;20285;-63
2022/04/08 10:06:26;;;;;;;11.70;4.80;;;;;;;;;;5129951;27;20264;-62
2022/04/08 10:08:52;;;;;;;13.03;6.27;;;;;;;;;;5113294;27;20781;-64
2022/04/08 10:11:25;;;;;;;15.03;6.73;;;;;;;;;;5113440;27;20264;-63
2022/04/08 10:14:06;;;;;;;13.23;6.93;;;;;;;;;;5129428;27;20285;-63
2022/04/08 10:16:33;;;;;;;11.17;5.70;;;;;;;;;;5129317;27;20271;-62
2022/04/08 10:19:04;;;;;;;9.10;5.43;;;;;;;;;;5129735;27;20263;-62
2022/04/08 10:21:39;;;;;;;8.67;4.27;;;;;;;;;;5128758;27;20271;-63
2022/04/08 10:24:10;;;;;;;12.25;5.88;;;;;;;;;;5123598;27;20271;-63
2022/04/08 10:26:56;;;;;;;12.67;6.27;;;;;;;;;;5132218;27;20034;-62
2022/04/08 10:29:22;;;;;;;14.57;6.47;;;;;;;;;;5113807;28;20272;-64
2022/04/08 10:32:00;;;;;;;23.30;6.63;;;;;;;;;;5111805;28;20028;-62
2022/04/08 10:34:27;;;;;;;10.87;6.23;;;;;;;;;;5108682;28;20304;-63
2022/04/08 10:36:53;;;;;;;7.50;4.30;;;;;;;;;;5111379;27;20305;-63
2022/04/08 10:39:24;;;;;;;11.03;5.33;;;;;;;;;;5128964;27;20734;-63
2022/04/08 10:41:52;;;;;;;13.50;6.53;;;;;;;;;;5129272;27;20264;-63
2022/04/08 10:44:33;;;;;;;11.30;6.30;;;;;;;;;;5114468;27;20281;-63
2022/04/08 10:47:01;;;;;;;10.23;6.33;;;;;;;;;;5126407;27;20260;-62
2022/04/08 10:49:28;;;;;;;9.53;5.50;;;;;;;;;;5113711;27;20264;-62
2022/04/08 10:51:55;;;;;;;17.30;5.37;;;;;;;;;;5114582;27;20809;-62
2022/04/08 10:54:21;;;;;;;12.53;5.70;;;;;;;;;;5122281;27;20252;-62
2022/04/08 10:57:00;;;;;;;12.43;5.43;;;;;;;;;;5107972;28;20329;-63
2022/04/08 10:59:27;;;;;;;10.23;5.33;;;;;;;;;;5108211;28;20263;-62
2022/04/08 11:01:58;;;;;;;12.00;5.90;;;;;;;;;;5108304;28;20271;-62
2022/04/08 11:04:28;;;;;;;9.97;5.87;;;;;;;;;;5110863;28;20660;-62
2022/04/08 11:06:55;;;;;;;10.50;5.47;;;;;;;;;;5113258;28;20260;-63
2022/04/08 11:09:23;;;;;;;15.37;6.40;;;;;;;;;;5113164;27;20309;-63
2022/04/08 11:11:53;;;;;;;14.80;7.03;;;;;;;;;;5129522;27;20286;-64
2022/04/08 11:14:20;;;;;;;11.63;6.50;;;;;;;;;;5133771;27;20263;-62
2022/04/08 11:16:51;;;;;;;18.67;7.90;;;;;;;;;;5128896;27;20655;-62
2022/04/08 11:19:20;;;;;;;14.80;7.47;;;;;;;;;;5107670;28;20288;-62
2022/04/08 11:21:47;;;;;;;14.23;7.00;;;;;;;;;;5107446;27;21765;-63
2022/04/08 11:24:15;;;;;;;12.40;6.37;;;;;;;;;;5108737;27;20256;-62
2022/04/08 11:26:42;;;;;;;10.93;6.33;;;;;;;;;;5130151;27;20271;-63
2022/04/08 11:29:15;;;;;;;10.77;6.47;;;;;;;;;;5096801;28;20290;-63
2022/04/08 11:31:42;;;;;;;15.67;6.07;;;;;;;;;;5112789;28;20293;-63
2022/04/08 11:34:08;;;;;;;10.03;5.93;;;;;;;;;;5112860;28;20791;-62
2022/04/08 11:36:36;;;;;;;8.23;4.60;;;;;;;;;;5112595;28;20752;-63
2022/04/08 11:39:04;;;;;;;10.07;5.17;;;;;;;;;;5129862;27;20271;-63
2022/04/08 11:41:31;;;;;;;11.13;6.10;;;;;;;;;;5128389;27;20263;-63
2022/04/08 11:43:58;;;;;;;10.87;6.23;;;;;;;;;;5127805;27;20259;-62
2022/04/08 11:46:25;;;;;;;14.43;7.27;;;;;;;;;;5112364;28;20359;-62
2022/04/08 11:48:51;;;;;;;18.20;7.40;;;;;;;;;;5109368;28;20383;-62
2022/04/08 11:51:21;;;;;;;12.60;6.80;;;;;;;;;;5112770;28;20622;-62
2022/04/08 11:53:51;;;;;;;15.67;7.07;;;;;;;;;;5112670;28;20274;-62
2022/04/08 11:56:28;;;;;;;10.53;5.97;;;;;;;;;;5129165;28;20350;-63
2022/04/08 11:58:59;;;;;;;14.03;6.37;;;;;;;;;;5112600;28;20252;-62
2022/04/08 12:01:29;;;;;;;14.97;7.77;;;;;;;;;;5109562;28;20370;-63
2022/04/08 12:03:59;;;;;;;14.10;6.07;;;;;;;;;;5106760;28;20255;-62
2022/04/08 12:06:33;;;;;;;11.83;7.00;;;;;;;;;;5124945;28;20275;-62
2022/04/08 12:09:00;;;;;;;14.63;6.18;;;;;;;;;;5108816;28;20371;-62
2022/04/08 12:11:28;;;;;;;20.67;6.37;;;;;;;;;;5110007;28;20470;-63
2022/04/08 12:13:57;;;;;;;11.53;5.47;;;;;;;;;;5112503;28;20264;-62
2022/04/08 12:16:23;;;;;;;12.33;5.60;;;;;;;;;;5113533;28;20765;-63
2022/04/08 12:18:51;;;;;;;10.90;5.37;;;;;;;;;;5116571;28;20310;-62
2022/04/08 12:21:25;;;;;;;11.83;5.80;;;;;;;;;;5112313;28;20284;-62
2022/04/08 12:23:52;;;;;;;11.70;5.63;;;;;;;;;;5125907;28;20324;-62
2022/04/08 12:26:19;;;;;;;10.77;5.60;;;;;;;;;;5127644;28;20325;-62
2022/04/08 12:28:46;;;;;;;16.30;6.27;;;;;;;;;;5126606;27;20339;-62
2022/04/08 12:31:21;;;;;;;11.93;5.73;;;;;;;;;;5110156;27;20285;-62
2022/04/08 12:33:48;;;;;;;15.25;6.28;;;;;;;;;;5129596;27;20278;-62
2022/04/08 12:36:15;;;;;;;12.53;5.33;;;;;;;;;;5136917;27;20469;-62
2022/04/08 12:38:43;;;;;;;10.80;4.60;;;;;;;;;;5119310;27;20255;-62
2022/04/08 12:41:10;;;;;;;10.17;6.07;;;;;;;;;;5116206;28;20648;-63
2022/04/08 12:43:37;;;;;;;9.87;4.77;;;;;;;;;;5129697;27;20267;-62
2022/04/08 12:46:04;;;;;;;12.33;5.60;;;;;;;;;;5132384;27;20255;-63
2022/04/08 12:48:33;;;;;;;17.67;6.23;;;;;;;;;;5114264;27;20288;-62
2022/04/08 12:51:00;;;;;;;16.03;5.93;;;;;;;;;;5110444;28;20347;-62
2022/04/08 12:53:29;;;;;;;15.67;6.73;;;;;;;;;;5122581;27;20298;-62
2022/04/08 12:55:56;;;;;;;15.80;8.13;;;;;;;;;;5133753;27;20253;-63
2022/04/08 12:58:24;;;;;;;16.30;6.60;;;;;;;;;;5136013;27;20298;-62
2022/04/08 13:00:54;;;;;;;19.47;6.60;;;;;;;;;;5120416;27;20741;-62
2022/04/08 13:03:21;;;;;;;15.43;6.87;;;;;;;;;;5126743;27;20277;-63
2022/04/08 13:05:47;;;;;;;19.50;7.93;;;;;;;;;;5133237;27;20736;-62
2022/04/08 13:08:14;;;;;;;17.80;8.20;;;;;;;;;;5111961;28;20286;-62
2022/04/08 13:10:42;;;;;;;15.87;7.10;;;;;;;;;;5110404;28;20272;-62
2022/04/08 13:13:09;;;;;;;21.30;7.70;;;;;;;;;;5109967;28;20279;-62
2022/04/08 13:15:36;;;;;;;15.67;9.40;;;;;;;;;;5109753;27;20282;-64
2022/04/08 13:18:03;;;;;;;21.33;9.70;;;;;;;;;;5131142;27;20630;-63
2022/04/08 13:20:30;;;;;;;17.47;8.80;;;;;;;;;;5136012;27;20339;-63
2022/04/08 13:22:56;;;;;;;17.43;8.37;;;;;;;;;;5135884;27;20641;-63
2022/04/08 13:25:24;;;;;;;19.37;9.13;;;;;;;;;;5135924;27;20251;-63
2022/04/08 13:27:53;;;;;;;16.03;7.80;;;;;;;;;;5117316;27;20352;-63
2022/04/08 13:30:21;;;;;;;14.37;6.33;;;;;;;;;;5111399;28;20270;-63
2022/04/08 13:32:48;;;;;;;35.43;10.30;;;;;;;;;;5121054;27;20685;-63
2022/04/08 13:35:14;;;;;;;14.37;5.60;;;;;;;;;;5122887;27;20024;-63
2022/04/08 13:37:41;;;;;;;11.57;4.90;;;;;;;;;;5126285;27;20027;-63
2022/04/08 13:40:08;;;;;;;9.87;5.47;;;;;;;;;;5132380;27;20023;-63
2022/04/08 13:42:35;;;;;;;16.23;5.83;;;;;;;;;;5130473;27;20107;-63
2022/04/08 13:45:02;;;;;;;10.47;3.83;;;;;;;;;;5114835;28;20486;-63
2022/04/08 13:47:29;;;;;;;11.00;4.70;;;;;;;;;;5127633;27;20036;-63
2022/04/08 13:49:55;;;;;;;9.93;4.63;;;;;;;;;;5115717;27;20466;-63
2022/04/08 13:52:22;;;;;;;7.40;3.67;;;;;;;;;;5112105;27;20041;-63
2022/04/08 13:54:49;;;;;;;7.60;4.00;;;;;;;;;;5109405;28;20034;-63
2022/04/08 13:57:16;;;;;;;7.90;4.00;;;;;;;;;;5122123;27;20023;-63
2022/04/08 13:59:42;;;;;;;10.53;4.47;;;;;;;;;;5129609;27;20027;-63
2022/04/08 14:02:11;;;;;;;9.77;4.70;;;;;;;;;;5131011;27;20034;-63
2022/04/08 14:04:38;;;;;;;8.27;4.03;;;;;;;;;;5118248;27;20020;-63
2022/04/08 14:07:05;;;;;;;8.57;4.97;;;;;;;;;;5125401;27;20111;-63
2022/04/08 14:09:32;;;;;;;9.43;4.83;;;;;;;;;;5134509;27;20039;-63
2022/04/08 14:11:59;;;;;;;15.37;5.27;;;;;;;;;;5134962;27;20395;-63
2022/04/08 14:14:26;;;;;;;7.93;4.37;;;;;;;;;;5132258;27;20034;-63
2022/04/08 14:16:52;;;;;;;12.00;4.67;;;;;;;;;;5119864;27;20087;-64
2022/04/08 14:19:19;;;;;;;17.27;8.30;;;;;;;;;;5109653;27;20466;-63
2022/04/08 14:21:46;;;;;;;8.57;5.10;;;;;;;;;;5108525;28;20058;-63
2022/04/08 14:24:12;;;;;;;11.53;5.23;;;;;;;;;;5110359;28;20035;-63
2022/04/08 14:26:42;;;;;;;10.50;5.80;;;;;;;;;;5121083;27;20023;-63
2022/04/08 14:29:09;;;;;;;9.00;5.30;;;;;;;;;;5119143;27;20039;-63
2022/04/08 14:31:36;;;;;;;8.87;4.70;;;;;;;;;;5114123;28;20028;-63
2022/04/08 14:34:03;;;;;;;10.00;4.63;;;;;;;;;;5113522;28;20481;-63
2022/04/08 14:36:30;;;;;;;10.80;4.90;;;;;;;;;;5123260;27;20128;-63
2022/04/08 14:38:56;;;;;;;8.17;5.30;;;;;;;;;;5108180;27;20385;-63
2022/04/08 14:41:23;;;;;;;7.70;4.63;;;;;;;;;;5108596;28;20025;-63